Time;durP1;ratioP1;P1;durP2;ratioP2;P2;SDS_P1;SDS_P2;PMS_P1;PMS_P2;Temp;Humidity;BMP_temperature;BMP_pressure;BME280_temperature;BME280_humidity;BME280_pressure;Samples;Min_cycle;Max_cycle;Signal;HPM_P1;HPM_P2
2023/03/25 00:01:31;;;;;;;10.20;2.40;;;;;;;9.00;100.00;100048.34;4973790;28;20030;-71
2023/03/25 00:03:59;;;;;;;10.82;2.60;;;;;;;8.97;100.00;100052.31;4994920;28;20029;-73
2023/03/25 00:06:26;;;;;;;9.75;2.95;;;;;;;8.95;100.00;100049.03;4978067;28;20154;-74
2023/03/25 00:08:52;;;;;;;9.35;2.25;;;;;;;9.00;100.00;100051.84;4975238;28;20547;-76
2023/03/25 00:11:17;;;;;;;10.30;2.60;;;;;;;8.96;100.00;100052.53;4958002;28;20179;-72
2023/03/25 00:13:43;;;;;;;11.00;2.70;;;;;;;8.97;100.00;100065.00;4957507;28;20071;-71
2023/03/25 00:16:09;;;;;;;11.25;2.83;;;;;;;8.96;100.00;100061.44;4957400;28;20023;-75
2023/03/25 00:18:36;;;;;;;8.55;2.42;;;;;;;8.95;100.00;100059.00;4974880;28;20038;-73
2023/03/25 00:21:03;;;;;;;11.07;2.33;;;;;;;8.94;100.00;100060.06;4975181;28;20026;-73
2023/03/25 00:23:30;;;;;;;9.88;2.47;;;;;;;8.89;100.00;100051.81;4976843;28;20038;-75
2023/03/25 00:25:59;;;;;;;11.60;2.50;;;;;;;8.90;100.00;100043.50;4956467;28;20031;-73
2023/03/25 00:28:27;;;;;;;10.95;2.13;;;;;;;8.89;100.00;100043.75;4957632;28;20112;-73
2023/03/25 00:30:52;;;;;;;7.15;1.98;;;;;;;8.88;100.00;100045.63;4989953;28;20050;-73
2023/03/25 00:33:18;;;;;;;10.00;2.35;;;;;;;8.87;100.00;100042.09;4974804;28;20459;-73
2023/03/25 00:35:43;;;;;;;9.80;2.22;;;;;;;8.87;100.00;100033.19;4974428;28;20037;-71
2023/03/25 00:38:11;;;;;;;13.25;2.70;;;;;;;8.92;100.00;100041.38;4972827;28;20045;-71
2023/03/25 00:40:37;;;;;;;9.23;2.33;;;;;;;8.86;100.00;100034.22;4993997;28;20062;-72
2023/03/25 00:43:04;;;;;;;7.43;2.10;;;;;;;8.85;100.00;100041.50;4958676;28;20411;-73
2023/03/25 00:45:30;;;;;;;8.35;2.03;;;;;;;8.87;100.00;100038.56;4974665;28;20054;-73
2023/03/25 00:47:55;;;;;;;11.88;2.17;;;;;;;8.85;100.00;100046.91;4974133;28;20458;-74
2023/03/25 00:50:21;;;;;;;10.00;2.60;;;;;;;8.80;100.00;100040.56;4974615;28;20062;-71
2023/03/25 00:52:47;;;;;;;11.02;2.50;;;;;;;8.81;100.00;100051.13;4973889;28;20034;-71
2023/03/25 00:55:13;;;;;;;8.43;2.40;;;;;;;8.83;100.00;100032.84;4974426;28;20455;-70
2023/03/25 00:57:38;;;;;;;9.07;2.20;;;;;;;8.81;100.00;100034.13;4973493;28;20065;-72
2023/03/25 01:00:10;;;;;;;8.18;2.30;;;;;;;8.81;100.00;100037.63;4974173;28;20505;-71
2023/03/25 01:02:38;;;;;;;11.00;2.35;;;;;;;8.80;100.00;100037.84;4971635;28;20066;-73
2023/03/25 01:05:04;;;;;;;10.93;2.00;;;;;;;8.78;100.00;100039.97;4956959;28;20035;-69
2023/03/25 01:07:30;;;;;;;6.57;1.98;;;;;;;8.75;100.00;100029.66;4974887;28;20367;-73
2023/03/25 01:09:59;;;;;;;5.85;1.85;;;;;;;8.71;100.00;100031.16;4973764;28;20450;-72
2023/03/25 01:12:25;;;;;;;9.70;2.17;;;;;;;8.74;100.00;100038.78;4974228;28;20038;-72
2023/03/25 01:14:51;;;;;;;9.07;2.05;;;;;;;8.69;100.00;100032.22;4973746;28;20062;-72
2023/03/25 01:17:17;;;;;;;7.95;2.13;;;;;;;8.69;100.00;100029.50;4982970;28;20057;-72
2023/03/25 01:19:42;;;;;;;7.32;2.28;;;;;;;8.69;100.00;100031.41;4993034;28;20398;-75
2023/03/25 01:22:07;;;;;;;10.10;2.28;;;;;;;8.69;100.00;100023.31;4979136;28;20043;-73
2023/03/25 01:24:33;;;;;;;7.30;1.90;;;;;;;8.64;100.00;100034.78;4973745;28;20077;-70
2023/03/25 01:26:59;;;;;;;8.10;2.25;;;;;;;8.60;100.00;100032.78;4974086;28;20031;-73
2023/03/25 01:29:24;;;;;;;6.80;2.40;;;;;;;8.61;100.00;100027.16;4956660;28;20034;-71
2023/03/25 01:31:50;;;;;;;8.80;2.20;;;;;;;8.59;100.00;100028.44;4973788;28;20031;-71
2023/03/25 01:34:15;;;;;;;7.95;2.10;;;;;;;8.56;100.00;100031.59;4973471;28;20355;-71
2023/03/25 01:36:45;;;;;;;6.35;2.10;;;;;;;8.56;100.00;100027.06;4966797;28;20033;-73
2023/03/25 01:39:12;;;;;;;5.75;2.00;;;;;;;8.56;100.00;100037.84;4959343;28;20037;-72
2023/03/25 01:41:37;;;;;;;7.97;2.28;;;;;;;8.56;100.00;100039.69;4956312;28;20026;-75
2023/03/25 01:44:27;;;;;;;5.43;1.90;;;;;;;8.58;100.00;100034.91;4973570;28;20034;-74
2023/03/25 01:46:55;;;;;;;5.78;1.80;;;;;;;8.51;100.00;100032.31;4973039;28;20030;-75
2023/03/25 01:49:32;;;;;;;6.18;2.05;;;;;;;8.51;100.00;100032.31;4956503;28;20056;-70
2023/03/25 01:52:06;;;;;;;10.13;2.55;;;;;;;8.49;100.00;100026.34;4972511;28;20451;-70
2023/03/25 01:54:32;;;;;;;8.15;2.55;;;;;;;8.50;100.00;100026.09;4960310;28;20030;-70
2023/03/25 01:56:57;;;;;;;7.10;1.95;;;;;;;8.45;100.00;100030.53;4992743;28;20354;-75
2023/03/25 01:59:27;;;;;;;5.32;1.73;;;;;;;8.46;100.00;100024.91;4975569;28;20034;-72
2023/03/25 02:02:01;;;;;;;6.40;2.05;;;;;;;8.45;100.00;100022.44;4973122;28;20362;-71
2023/03/25 02:04:33;;;;;;;4.85;1.95;;;;;;;8.49;100.00;100023.63;4987486;28;20048;-74
2023/03/25 02:06:59;;;;;;;5.75;1.80;;;;;;;8.46;100.00;100024.91;4973294;28;20047;-71
2023/03/25 02:09:25;;;;;;;8.32;1.80;;;;;;;8.46;100.00;100026.78;4973568;28;20114;-71
2023/03/25 02:11:53;;;;;;;7.40;1.90;;;;;;;8.45;100.00;100025.16;4973049;28;20042;-73
2023/03/25 02:14:23;;;;;;;5.07;1.73;;;;;;;8.44;100.00;100020.78;4973650;28;20398;-73
2023/03/25 02:17:17;;;;;;;7.93;2.03;;;;;;;8.44;100.00;100020.78;4973349;28;20031;-72
2023/03/25 02:19:51;;;;;;;5.05;1.98;;;;;;;8.42;100.00;100014.78;4973744;28;20038;-71
2023/03/25 02:22:40;;;;;;;7.85;2.22;;;;;;;8.41;100.00;100013.13;4976886;28;20031;-70
2023/03/25 02:25:21;;;;;;;6.68;2.25;;;;;;;8.40;100.00;100015.03;4973179;28;20030;-74
2023/03/25 02:28:16;;;;;;;7.38;2.10;;;;;;;8.38;100.00;100019.84;4972936;28;20054;-72
2023/03/25 02:30:59;;;;;;;6.75;1.90;;;;;;;8.43;100.00;100021.84;4973313;28;20031;-74
2023/03/25 02:33:56;;;;;;;6.57;1.85;;;;;;;8.43;100.00;100016.44;4973436;28;20458;-71
2023/03/25 02:36:44;;;;;;;5.97;1.73;;;;;;;8.42;100.00;100020.19;4972904;28;20023;-74
2023/03/25 02:39:22;;;;;;;5.55;1.75;;;;;;;8.42;100.00;100026.38;4972967;28;20129;-74
2023/03/25 02:41:56;;;;;;;9.30;2.30;;;;;;;8.43;100.00;100021.84;4973308;28;20038;-71
2023/03/25 02:44:30;;;;;;;8.30;2.03;;;;;;;8.42;100.00;100021.00;4973044;28;20037;-71
2023/03/25 02:47:01;;;;;;;10.73;2.53;;;;;;;8.36;100.00;100013.03;4973021;28;20023;-73
2023/03/25 02:49:30;;;;;;;6.88;2.10;;;;;;;8.31;100.00;100011.84;4974929;28;20026;-70
2023/03/25 02:52:01;;;;;;;6.72;2.40;;;;;;;8.29;100.00;100021.22;4981072;28;20035;-73
2023/03/25 02:54:32;;;;;;;7.60;2.20;;;;;;;8.25;100.00;100012.75;4996146;28;20030;-71
2023/03/25 02:56:58;;;;;;;10.48;2.35;;;;;;;8.21;100.00;100003.47;4994519;28;20614;-72
2023/03/25 02:59:29;;;;;;;10.65;2.47;;;;;;;8.16;100.00;100009.56;4990210;28;20027;-73
2023/03/25 03:01:57;;;;;;;8.25;2.63;;;;;;;8.15;100.00;100004.41;4957047;28;20038;-72
2023/03/25 03:04:23;;;;;;;8.98;2.25;;;;;;;8.11;100.00;100003.25;4976704;28;20470;-73
2023/03/25 03:06:49;;;;;;;8.90;2.58;;;;;;;8.10;100.00;100013.19;4958511;28;20038;-70
2023/03/25 03:09:35;;;;;;;11.80;2.70;;;;;;;8.12;100.00;100007.56;4959231;28;20022;-74
2023/03/25 03:12:29;;;;;;;8.35;2.42;;;;;;;8.08;100.00;100006.41;4960506;28;20058;-73
2023/03/25 03:15:05;;;;;;;10.20;2.40;;;;;;;8.09;100.00;100000.78;4977448;28;20466;-72
2023/03/25 03:17:48;;;;;;;10.77;2.67;;;;;;;8.07;100.00;99992.06;4995920;28;20108;-72
2023/03/25 03:20:31;;;;;;;9.68;2.58;;;;;;;8.05;100.00;99994.19;4978337;28;20425;-72
2023/03/25 03:23:09;;;;;;;12.45;2.53;;;;;;;8.06;100.00;99995.00;4976049;28;20110;-70
2023/03/25 03:25:48;;;;;;;11.52;2.58;;;;;;;8.07;100.00;99996.66;4976341;28;20126;-70
2023/03/25 03:28:27;;;;;;;11.93;2.83;;;;;;;8.05;100.00;99993.38;4976427;28;20479;-73
2023/03/25 03:31:05;;;;;;;10.38;2.90;;;;;;;8.06;100.00;99997.69;4958612;28;20438;-73
2023/03/25 03:34:02;;;;;;;10.07;2.75;;;;;;;8.13;100.00;100009.22;4975456;28;20054;-72
2023/03/25 03:36:38;;;;;;;13.60;2.80;;;;;;;8.06;100.00;99997.69;4985654;28;20353;-73
2023/03/25 03:39:09;;;;;;;11.75;2.50;;;;;;;8.07;100.00;100002.03;4994002;28;20034;-72
2023/03/25 03:41:40;;;;;;;13.27;2.88;;;;;;;8.10;100.00;100007.78;4995160;28;20033;-71
2023/03/25 03:44:14;;;;;;;14.70;3.20;;;;;;;8.09;100.00;99994.53;4995456;28;20030;-73
2023/03/25 03:47:09;;;;;;;11.70;2.58;;;;;;;8.12;100.00;100002.16;4977788;28;20040;-69
2023/03/25 03:49:39;;;;;;;13.60;3.53;;;;;;;8.09;100.00;99995.38;4922480;28;20472;-73
2023/03/25 03:52:16;;;;;;;12.85;2.85;;;;;;;8.10;100.00;99985.41;4957519;28;20034;-70
2023/03/25 03:54:51;;;;;;;8.65;2.22;;;;;;;8.12;100.00;99989.53;4993957;28;20414;-74
2023/03/25 03:57:25;;;;;;;10.68;2.25;;;;;;;8.07;100.00;99992.06;4977722;28;20407;-72
2023/03/25 04:00:05;;;;;;;11.38;2.65;;;;;;;8.10;100.00;99993.50;4977571;28;20361;-70
2023/03/25 04:02:40;;;;;;;12.88;3.17;;;;;;;8.04;100.00;99997.13;4992713;28;20030;-73
2023/03/25 04:05:10;;;;;;;10.65;2.65;;;;;;;8.02;100.00;100002.72;4977162;28;20022;-71
2023/03/25 04:07:53;;;;;;;11.48;2.42;;;;;;;8.05;100.00;99996.06;4992100;28;20723;-70
2023/03/25 04:10:28;;;;;;;12.05;2.80;;;;;;;8.02;100.00;99999.19;4968430;28;20112;-72
2023/03/25 04:12:57;;;;;;;9.50;2.45;;;;;;;8.04;100.00;100006.00;4977057;28;20038;-72
2023/03/25 04:15:22;;;;;;;9.05;2.38;;;;;;;8.03;100.00;100000.84;4976259;28;20030;-73
2023/03/25 04:17:48;;;;;;;7.72;2.55;;;;;;;8.04;100.00;100003.31;4994496;28;20110;-71
2023/03/25 04:20:17;;;;;;;9.50;2.05;;;;;;;8.05;100.00;100004.16;4977138;28;20032;-73
2023/03/25 04:22:44;;;;;;;10.63;2.58;;;;;;;8.06;100.00;100003.94;4992442;28;20520;-70
2023/03/25 04:25:10;;;;;;;6.47;1.92;;;;;;;8.01;100.00;100001.06;4957626;28;20019;-70
2023/03/25 04:27:38;;;;;;;7.13;2.22;;;;;;;8.02;100.00;99999.19;4978573;28;20031;-71
2023/03/25 04:30:05;;;;;;;8.90;2.33;;;;;;;8.03;100.00;100000.84;4994289;28;20069;-71
2023/03/25 04:32:31;;;;;;;8.13;2.13;;;;;;;7.99;100.00;100000.50;4993905;28;20034;-73
2023/03/25 04:34:56;;;;;;;8.50;2.10;;;;;;;8.04;100.00;99997.13;4976677;28;20030;-70
2023/03/25 04:37:26;;;;;;;9.68;2.22;;;;;;;7.97;100.00;99998.03;4976794;28;20394;-71
2023/03/25 04:39:54;;;;;;;9.70;2.35;;;;;;;7.96;100.00;99996.38;4993772;28;20074;-73
2023/03/25 04:42:24;;;;;;;6.90;2.08;;;;;;;7.97;100.00;99999.88;4971906;28;20031;-72
2023/03/25 04:44:50;;;;;;;11.30;2.55;;;;;;;7.97;100.00;100005.28;4993154;28;20037;-69
2023/03/25 04:47:19;;;;;;;10.05;2.17;;;;;;;7.96;100.00;100012.53;4993898;28;20030;-71
2023/03/25 04:49:45;;;;;;;7.95;2.00;;;;;;;7.94;100.00;100008.44;4994161;28;20026;-72
2023/03/25 04:52:13;;;;;;;7.45;1.92;;;;;;;7.95;100.00;100005.50;4976312;28;20117;-71
2023/03/25 04:54:39;;;;;;;6.78;2.17;;;;;;;7.92;100.00;99991.69;4993679;28;20077;-70
2023/03/25 04:57:07;;;;;;;8.55;2.10;;;;;;;7.90;100.00;100005.38;4974039;28;20459;-71
2023/03/25 04:59:33;;;;;;;9.80;2.75;;;;;;;7.86;100.00;100000.69;4992990;28;20085;-74
2023/03/25 05:01:58;;;;;;;8.00;2.35;;;;;;;7.86;100.00;99996.09;4977850;28;20478;-73
2023/03/25 05:04:24;;;;;;;13.98;3.10;;;;;;;7.85;100.00;99994.47;4984632;28;20105;-72
2023/03/25 05:06:51;;;;;;;11.45;2.67;;;;;;;7.87;100.00;99994.25;4979828;28;20031;-73
2023/03/25 05:09:23;;;;;;;9.45;2.45;;;;;;;7.88;100.00;99993.19;4974378;28;20093;-70
2023/03/25 05:11:50;;;;;;;7.47;2.00;;;;;;;7.84;100.00;99998.22;4955817;28;20354;-72
2023/03/25 05:14:17;;;;;;;9.65;2.30;;;;;;;7.81;100.00;99988.72;4967004;28;20085;-72
2023/03/25 05:16:43;;;;;;;9.45;2.30;;;;;;;7.79;100.00;99985.44;4993609;28;20054;-70
2023/03/25 05:19:09;;;;;;;7.47;2.22;;;;;;;7.78;100.00;99993.75;4976024;28;20154;-71
2023/03/25 05:21:37;;;;;;;8.70;2.30;;;;;;;7.79;100.00;99990.00;4962971;28;20553;-70
2023/03/25 05:24:07;;;;;;;10.43;2.35;;;;;;;7.73;100.00;99999.81;4973627;28;20027;-71
2023/03/25 05:26:33;;;;;;;11.68;2.65;;;;;;;7.73;100.00;99986.34;4956265;28;20089;-71
2023/03/25 05:29:00;;;;;;;11.57;2.53;;;;;;;7.75;100.00;100002.28;4956433;28;20607;-71
2023/03/25 05:31:26;;;;;;;11.27;2.28;;;;;;;7.80;100.00;100016.72;4956478;28;20366;-72
2023/03/25 05:33:53;;;;;;;7.78;1.95;;;;;;;7.87;100.00;100018.50;4973744;28;20047;-70
2023/03/25 05:36:19;;;;;;;10.93;2.80;;;;;;;7.83;100.00;100020.00;4956595;28;20031;-72
2023/03/25 05:38:44;;;;;;;10.52;2.40;;;;;;;7.87;100.00;100011.22;4973238;28;20033;-71
2023/03/25 05:41:15;;;;;;;7.63;2.15;;;;;;;7.85;100.00;100015.19;4973666;28;20514;-73
2023/03/25 05:43:46;;;;;;;10.68;2.28;;;;;;;7.85;100.00;100005.25;4973855;28;20457;-71
2023/03/25 05:46:12;;;;;;;10.27;2.42;;;;;;;7.89;100.00;100009.09;4973387;28;20033;-73
2023/03/25 05:48:40;;;;;;;11.88;3.00;;;;;;;7.86;100.00;100016.84;4976348;28;20018;-72
2023/03/25 05:51:16;;;;;;;10.45;2.45;;;;;;;7.86;100.00;100012.25;4993035;28;20089;-73
2023/03/25 05:53:44;;;;;;;13.80;2.80;;;;;;;7.87;100.00;100016.59;4984731;28;20027;-70
2023/03/25 05:56:10;;;;;;;9.90;2.30;;;;;;;7.88;100.00;100026.34;4973202;28;20109;-70
2023/03/25 05:58:37;;;;;;;12.80;2.60;;;;;;;7.89;100.00;100032.53;4956316;28;20081;-69
2023/03/25 06:01:03;;;;;;;8.45;2.15;;;;;;;7.89;100.00;100030.66;4971485;28;20435;-71
2023/03/25 06:03:29;;;;;;;8.70;2.30;;;;;;;7.89;100.00;100037.94;4955865;28;20626;-70
2023/03/25 06:05:55;;;;;;;13.05;2.60;;;;;;;7.90;100.00;100035.00;4973231;28;20636;-73
2023/03/25 06:08:24;;;;;;;11.93;2.60;;;;;;;7.88;100.00;100037.13;4973167;28;20086;-71
2023/03/25 06:10:57;;;;;;;13.00;2.63;;;;;;;7.88;100.00;100044.34;4955929;28;20030;-73
2023/03/25 06:13:26;;;;;;;15.00;3.08;;;;;;;7.91;100.00;100047.44;4955658;28;20118;-73
2023/03/25 06:15:55;;;;;;;12.20;2.85;;;;;;;7.89;100.00;100052.22;4973338;28;20105;-71
2023/03/25 06:18:23;;;;;;;13.65;2.75;;;;;;;7.90;100.00;100055.75;4956158;28;20173;-70
2023/03/25 06:20:53;;;;;;;9.10;2.90;;;;;;;7.89;100.00;100052.22;4956482;28;20455;-73
2023/03/25 06:23:22;;;;;;;10.38;2.30;;;;;;;7.86;100.00;100044.59;4978062;28;20100;-72
2023/03/25 06:25:49;;;;;;;13.65;2.50;;;;;;;7.89;100.00;100044.13;4995426;28;20034;-71
2023/03/25 06:28:17;;;;;;;11.18;2.58;;;;;;;7.91;100.00;100049.28;4996276;28;20485;-71
2023/03/25 06:30:43;;;;;;;9.77;2.50;;;;;;;7.92;100.00;100049.06;4979241;28;20029;-70
2023/03/25 06:33:09;;;;;;;14.05;2.60;;;;;;;7.93;100.00;100034.56;4995938;28;20042;-71
2023/03/25 06:35:35;;;;;;;12.63;3.45;;;;;;;7.96;100.00;100041.38;4979035;28;20366;-73
2023/03/25 06:38:00;;;;;;;10.73;2.42;;;;;;;7.96;100.00;100047.56;4975100;28;20038;-74
2023/03/25 06:40:26;;;;;;;14.05;2.85;;;;;;;7.98;100.00;100056.22;4982754;28;20109;-71
2023/03/25 06:42:51;;;;;;;14.95;3.22;;;;;;;7.97;100.00;100057.31;4959628;28;20023;-70
2023/03/25 06:45:17;;;;;;;12.70;3.17;;;;;;;8.01;100.00;100056.84;4976772;28;20038;-72
2023/03/25 06:47:42;;;;;;;12.65;2.85;;;;;;;8.06;100.00;100059.66;4977001;28;20033;-72
2023/03/25 06:50:08;;;;;;;13.05;3.00;;;;;;;8.12;100.00;100064.16;4959317;28;20105;-70
2023/03/25 06:52:34;;;;;;;13.07;2.80;;;;;;;8.12;100.00;100069.53;4976886;28;20360;-70
2023/03/25 06:55:00;;;;;;;13.57;2.65;;;;;;;8.14;100.00;100062.88;4986649;28;20029;-73
2023/03/25 06:57:25;;;;;;;10.38;3.00;;;;;;;8.19;100.00;100064.88;4959104;28;20460;-71
2023/03/25 06:59:51;;;;;;;12.95;3.13;;;;;;;8.20;100.00;100071.94;4976778;28;20034;-73
2023/03/25 07:02:16;;;;;;;16.60;3.20;;;;;;;8.21;100.00;100070.03;4974312;28;20022;-70
2023/03/25 07:04:42;;;;;;;12.93;2.85;;;;;;;8.23;100.00;100065.25;4977619;28;20026;-70
2023/03/25 07:07:08;;;;;;;10.73;3.20;;;;;;;8.24;100.00;100073.09;4959049;28;20039;-71
2023/03/25 07:09:34;;;;;;;13.75;3.85;;;;;;;8.24;100.00;100067.72;4975506;28;20366;-70
2023/03/25 07:11:59;;;;;;;15.30;3.47;;;;;;;8.27;100.00;100075.34;4988833;28;20045;-73
2023/03/25 07:14:25;;;;;;;13.35;3.20;;;;;;;8.27;100.00;100075.34;4994038;28;20022;-71
2023/03/25 07:16:51;;;;;;;13.32;2.95;;;;;;;8.28;100.00;100052.72;4995673;28;20030;-69
2023/03/25 07:19:16;;;;;;;15.05;3.58;;;;;;;8.33;100.00;100065.50;4956971;28;20027;-72
2023/03/25 07:21:42;;;;;;;17.55;3.45;;;;;;;8.32;100.00;100055.81;4979047;28;20522;-71
2023/03/25 07:24:08;;;;;;;15.80;3.20;;;;;;;8.31;100.00;100063.06;4975824;28;20022;-71
2023/03/25 07:26:33;;;;;;;14.48;3.05;;;;;;;8.30;100.00;100074.06;4976038;28;20125;-71
2023/03/25 07:28:59;;;;;;;15.60;3.17;;;;;;;8.29;100.00;100064.34;4973374;28;20029;-74
2023/03/25 07:31:24;;;;;;;17.60;3.45;;;;;;;8.30;100.00;100065.97;4976279;28;20462;-73
2023/03/25 07:33:50;;;;;;;13.27;2.95;;;;;;;8.26;100.00;100076.41;4976143;28;20098;-71
2023/03/25 07:36:16;;;;;;;18.58;3.97;;;;;;;8.22;100.00;100087.88;4973598;28;20022;-71
2023/03/25 07:38:42;;;;;;;16.30;3.40;;;;;;;8.19;100.00;100081.06;4958701;28;20031;-74
2023/03/25 07:41:13;;;;;;;20.15;3.67;;;;;;;8.18;100.00;100083.97;4961452;28;20133;-74
2023/03/25 07:43:38;;;;;;;22.27;4.82;;;;;;;8.12;100.00;100083.84;4977863;28;20022;-74
2023/03/25 07:46:05;;;;;;;15.88;3.20;;;;;;;8.11;100.00;100090.28;4977598;28;20469;-75
2023/03/25 07:48:30;;;;;;;19.10;3.88;;;;;;;8.14;100.00;100086.31;4995360;28;20113;-74
2023/03/25 07:50:56;;;;;;;14.98;3.42;;;;;;;8.11;100.00;100084.88;4971116;28;20073;-73
2023/03/25 07:53:22;;;;;;;19.45;3.95;;;;;;;8.08;100.00;100098.00;4975678;28;20090;-78
2023/03/25 07:55:50;;;;;;;15.93;3.38;;;;;;;8.07;100.00;100096.34;4957605;28;20459;-72
2023/03/25 07:58:17;;;;;;;17.23;3.10;;;;;;;8.14;100.00;100097.09;4975557;28;20115;-73
2023/03/25 08:00:43;;;;;;;15.52;3.28;;;;;;;8.13;100.00;100098.94;4956069;28;20023;-77
2023/03/25 08:03:11;;;;;;;19.73;4.07;;;;;;;8.18;100.00;100095.56;4957743;28;20045;-73
2023/03/25 08:05:37;;;;;;;16.15;3.20;;;;;;;8.21;100.00;100092.41;4974449;28;20023;-76
2023/03/25 08:08:04;;;;;;;12.23;2.90;;;;;;;8.30;100.00;100101.84;4964544;28;20027;-72
2023/03/25 08:10:29;;;;;;;15.00;3.40;;;;;;;8.43;100.00;100110.81;4958779;28;20054;-74
2023/03/25 08:12:55;;;;;;;16.40;3.58;;;;;;;8.50;100.00;100108.88;4976306;28;20035;-73
2023/03/25 08:15:23;;;;;;;13.10;3.13;;;;;;;8.58;100.00;100110.41;4973784;28;20493;-76
2023/03/25 08:17:50;;;;;;;14.25;3.35;;;;;;;8.59;100.00;100112.88;4962590;28;20035;-74
2023/03/25 08:20:16;;;;;;;15.43;3.20;;;;;;;8.64;100.00;100118.41;4975356;28;20026;-75
2023/03/25 08:22:44;;;;;;;13.80;3.15;;;;;;;8.62;100.00;100112.44;4991990;28;20039;-76
2023/03/25 08:25:10;;;;;;;17.73;4.43;;;;;;;8.57;100.00;100120.38;4991062;28;20037;-75
2023/03/25 08:27:35;;;;;;;16.70;3.58;;;;;;;8.55;100.00;100132.47;4961868;28;20852;-75
2023/03/25 08:30:00;;;;;;;21.83;3.90;;;;;;;8.48;100.00;100136.06;4973835;28;20023;-77
2023/03/25 08:32:27;;;;;;;14.38;3.55;;;;;;;8.43;100.00;100135.06;4976733;28;20545;-74
2023/03/25 08:34:53;;;;;;;19.63;4.18;;;;;;;8.34;100.00;100129.16;4976680;28;20045;-74
2023/03/25 08:37:20;;;;;;;15.45;3.55;;;;;;;8.27;100.00;100137.34;4974872;28;20038;-73
2023/03/25 08:39:48;;;;;;;21.15;5.15;;;;;;;8.21;100.00;100149.03;4990104;28;20022;-76
2023/03/25 08:42:15;;;;;;;16.40;3.63;;;;;;;8.20;100.00;100131.22;4991987;28;20189;-73
2023/03/25 08:44:40;;;;;;;20.08;4.00;;;;;;;8.15;100.00;100140.00;4994501;28;20509;-75
2023/03/25 08:47:06;;;;;;;16.73;3.88;;;;;;;8.16;100.00;100143.50;4975587;28;20109;-72
2023/03/25 08:49:31;;;;;;;20.67;4.10;;;;;;;8.20;100.00;100141.16;4995021;28;20061;-74
2023/03/25 08:51:59;;;;;;;18.70;3.55;;;;;;;8.23;100.00;100135.31;4993084;28;20034;-75
2023/03/25 08:54:24;;;;;;;18.42;4.20;;;;;;;8.27;100.00;100136.50;4975552;28;20077;-76
2023/03/25 08:56:50;;;;;;;15.75;3.70;;;;;;;8.32;100.00;100136.66;4979732;28;20035;-72
2023/03/25 08:59:16;;;;;;;17.48;3.92;;;;;;;8.42;100.00;100130.72;4957106;28;20447;-75
2023/03/25 09:01:42;;;;;;;20.35;3.83;;;;;;;8.50;100.00;100138.53;4971827;28;20042;-74
2023/03/25 09:04:08;;;;;;;16.92;3.40;;;;;;;8.48;100.00;100125.28;4974031;28;20443;-73
2023/03/25 09:06:34;;;;;;;18.45;4.47;;;;;;;8.57;100.00;100135.75;4989788;28;20031;-74
2023/03/25 09:09:03;;;;;;;17.50;3.90;;;;;;;8.63;100.00;100132.94;4957562;28;20054;-72
2023/03/25 09:11:29;;;;;;;20.88;4.78;;;;;;;8.68;100.00;100134.94;4974169;28;20039;-72
2023/03/25 09:13:54;;;;;;;19.20;4.07;;;;;;;8.80;100.00;100132.28;4991936;28;20386;-74
2023/03/25 09:16:20;;;;;;;24.08;5.20;;;;;;;8.93;100.00;100129.38;4988486;28;20527;-72
2023/03/25 09:18:48;;;;;;;20.35;4.28;;;;;;;9.01;100.00;100139.84;4976686;28;20377;-77
2023/03/25 09:21:13;;;;;;;21.00;4.57;;;;;;;9.13;100.00;100129.03;4993364;28;20018;-74
2023/03/25 09:23:38;;;;;;;24.42;5.35;;;;;;;9.15;100.00;100126.13;4976338;28;20037;-74
2023/03/25 09:26:05;;;;;;;16.77;4.13;;;;;;;9.25;100.00;100131.75;4993706;28;20022;-72
2023/03/25 09:28:30;;;;;;;20.23;4.78;;;;;;;9.27;100.00;100126.97;4993685;28;20026;-74
2023/03/25 09:30:56;;;;;;;19.23;4.45;;;;;;;9.39;100.00;100132.34;4992690;28;20053;-74
2023/03/25 09:33:22;;;;;;;17.52;4.07;;;;;;;9.44;100.00;100128.97;4991977;28;20065;-74
2023/03/25 09:35:49;;;;;;;19.73;4.53;;;;;;;9.52;100.00;100151.03;4975697;28;20120;-73
2023/03/25 09:38:15;;;;;;;26.08;5.00;;;;;;;9.60;100.00;100139.03;4975455;28;20030;-72
2023/03/25 09:40:42;;;;;;;19.48;4.25;;;;;;;9.59;100.00;100137.41;4993554;28;20343;-71
2023/03/25 09:43:50;;;;;;;22.23;4.50;;;;;;;9.66;100.00;100148.09;4992992;28;20030;-75
2023/03/25 09:46:15;;;;;;;17.35;4.28;;;;;;;9.64;100.00;100155.63;4968228;28;20573;-76
2023/03/25 09:48:44;;;;;;;19.52;3.90;;;;;;;9.67;100.00;100145.16;4975128;28;20070;-74
2023/03/25 09:51:24;;;;;;;18.13;3.92;;;;;;;9.78;100.00;100142.66;4987222;28;20027;-71
2023/03/25 09:53:53;;;;;;;21.98;4.13;;;;;;;9.78;100.00;100148.06;4974119;28;20034;-73
2023/03/25 09:56:25;;;;;;;20.17;4.68;;;;;;;9.81;100.00;100155.72;4955993;28;20039;-71
2023/03/25 09:58:53;;;;;;;;;;;;;;;9.88;100.00;100156.41;4961726;28;20034;-75
2023/03/25 10:01:44;;;;;;;15.13;3.95;;;;;;;9.82;100.00;100144.66;4977611;28;19916;-72
2023/03/25 10:04:44;;;;;;;19.40;4.18;;;;;;;9.89;100.00;100163.47;4984813;28;20025;-72
2023/03/25 10:07:24;;;;;;;17.90;4.07;;;;;;;9.93;100.00;100153.81;4982232;28;20536;-77
2023/03/25 10:10:18;;;;;;;19.88;4.70;;;;;;;9.91;100.00;100174.84;4981874;28;20022;-72
2023/03/25 10:12:55;;;;;;;19.13;4.60;;;;;;;10.04;100.00;100155.69;4963125;28;20056;-71
2023/03/25 10:15:28;;;;;;;21.60;4.90;;;;;;;10.12;100.00;100157.19;4990985;28;20132;-75
2023/03/25 10:18:21;;;;;;;20.08;4.70;;;;;;;10.23;100.00;100150.91;4965618;28;20034;-74
2023/03/25 10:21:14;;;;;;;24.95;5.68;;;;;;;10.33;100.00;100157.59;4980542;28;20022;-73
2023/03/25 10:23:49;;;;;;;22.02;4.88;;;;;;;10.37;100.00;100151.50;4980366;28;20030;-73
2023/03/25 10:26:29;;;;;;;21.98;5.18;;;;;;;10.43;100.00;100164.06;4981308;28;20104;-74
2023/03/25 10:29:11;;;;;;;25.98;5.35;;;;;;;10.45;100.00;100151.09;4981610;28;20049;-73
2023/03/25 10:31:48;;;;;;;20.95;4.88;;;;;;;10.45;100.00;100151.09;4999300;28;20026;-73
2023/03/25 10:34:17;;;;;;;23.48;4.68;;;;;;;10.42;100.00;100165.13;4981653;28;20462;-71
2023/03/25 10:36:53;;;;;;;22.13;4.55;;;;;;;10.37;100.00;100170.44;4999629;28;20062;-72
2023/03/25 10:39:21;;;;;;;21.15;5.00;;;;;;;10.34;100.00;100160.09;4987952;28;20027;-74
2023/03/25 10:42:02;;;;;;;19.73;4.57;;;;;;;10.44;100.00;100160.28;4982813;28;20045;-72
2023/03/25 10:44:29;;;;;;;18.10;4.18;;;;;;;10.42;100.00;100165.13;4982576;28;20105;-71
2023/03/25 10:47:03;;;;;;;19.10;4.25;;;;;;;10.55;100.00;100155.91;4995756;28;20037;-73
2023/03/25 10:49:30;;;;;;;13.85;4.13;;;;;;;10.65;100.00;100179.63;4983093;28;20034;-72
2023/03/25 10:51:58;;;;;;;19.02;4.15;;;;;;;10.72;88.36;100155.09;4979440;28;20030;-76
2023/03/25 10:54:55;;;;;;;17.75;3.60;;;;;;;10.80;92.06;100176.38;4962198;28;20030;-71
2023/03/25 10:57:27;;;;;;;17.40;3.70;;;;;;;10.88;92.37;100169.75;4978481;28;20034;-71
2023/03/25 11:00:15;;;;;;;20.40;4.40;;;;;;;11.00;84.93;100167.78;4990005;28;20382;-72
2023/03/25 11:02:40;;;;;;;15.85;3.47;;;;;;;11.06;79.11;100174.91;4985772;28;20450;-72
2023/03/25 11:05:06;;;;;;;19.35;3.80;;;;;;;11.13;74.90;100178.31;4988080;28;20037;-74
2023/03/25 11:07:35;;;;;;;16.38;3.50;;;;;;;11.15;77.04;100178.88;4979243;28;20066;-73
2023/03/25 11:10:12;;;;;;;14.90;3.38;;;;;;;11.20;74.33;100170.00;4978551;28;20026;-73
2023/03/25 11:12:42;;;;;;;15.57;3.50;;;;;;;11.16;73.64;100183.22;4976010;28;20026;-75
2023/03/25 11:15:17;;;;;;;16.30;3.38;;;;;;;11.16;72.75;100198.66;4972962;28;20375;-73
2023/03/25 11:18:00;;;;;;;9.68;2.55;;;;;;;11.22;72.44;100188.72;4976652;28;20054;-79
2023/03/25 11:20:48;;;;;;;13.50;2.75;;;;;;;11.25;69.37;100185.53;4978124;28;20462;-70
2023/03/25 11:23:18;;;;;;;11.40;3.08;;;;;;;11.21;69.23;100189.81;4995504;28;20511;-76
2023/03/25 11:25:44;;;;;;;13.35;3.08;;;;;;;11.25;70.23;100185.53;4978329;28;20096;-75
2023/03/25 11:28:34;;;;;;;14.57;3.58;;;;;;;11.30;70.48;100193.75;4995544;28;20027;-74
2023/03/25 11:31:10;;;;;;;14.68;3.00;;;;;;;11.31;68.95;100189.97;4985961;28;20114;-72
2023/03/25 11:33:36;;;;;;;10.98;2.20;;;;;;;11.34;67.47;100184.06;4994554;28;20050;-71